sensor_id;sensor_type;location;lat;lon;timestamp;P1;durP1;ratioP1;P2;durP2;ratioP2
41141;SDS011;63666;52.284;20.890;2023-12-20T00:00:23;7.10;;;4.90;;
41141;SDS011;63666;52.284;20.890;2023-12-20T00:03:39;7.00;;;4.80;;
41141;SDS011;63666;52.284;20.890;2023-12-20T00:06:21;7.10;;;4.90;;
41141;SDS011;63666;52.284;20.890;2023-12-20T00:09:03;7.60;;;4.90;;
41141;SDS011;63666;52.284;20.890;2023-12-20T00:11:40;6.60;;;4.90;;
41141;SDS011;63666;52.284;20.890;2023-12-20T00:14:17;6.60;;;4.40;;
41141;SDS011;63666;52.284;20.890;2023-12-20T00:16:57;6.70;;;5.00;;
41141;SDS011;63666;52.284;20.890;2023-12-20T00:19:36;7.00;;;4.70;;
41141;SDS011;63666;52.284;20.890;2023-12-20T00:22:14;6.50;;;4.50;;
41141;SDS011;63666;52.284;20.890;2023-12-20T00:24:51;6.10;;;4.30;;
41141;SDS011;63666;52.284;20.890;2023-12-20T00:27:29;6.90;;;4.40;;
41141;SDS011;63666;52.284;20.890;2023-12-20T00:30:10;6.30;;;4.40;;
41141;SDS011;63666;52.284;20.890;2023-12-20T00:32:48;6.70;;;4.60;;
41141;SDS011;63666;52.284;20.890;2023-12-20T00:35:30;7.20;;;4.50;;
41141;SDS011;63666;52.284;20.890;2023-12-20T00:38:09;6.40;;;4.30;;
41141;SDS011;63666;52.284;20.890;2023-12-20T00:40:48;7.10;;;4.60;;
41141;SDS011;63666;52.284;20.890;2023-12-20T00:43:27;6.90;;;4.40;;
41141;SDS011;63666;52.284;20.890;2023-12-20T00:46:06;6.70;;;4.40;;
41141;SDS011;63666;52.284;20.890;2023-12-20T00:48:44;6.40;;;4.00;;
41141;SDS011;63666;52.284;20.890;2023-12-20T00:51:26;6.00;;;4.10;;
41141;SDS011;63666;52.284;20.890;2023-12-20T00:54:08;6.30;;;4.30;;
41141;SDS011;63666;52.284;20.890;2023-12-20T00:56:45;6.10;;;4.10;;
41141;SDS011;63666;52.284;20.890;2023-12-20T00:59:24;6.60;;;4.20;;
41141;SDS011;63666;52.284;20.890;2023-12-20T01:02:03;5.60;;;3.90;;
41141;SDS011;63666;52.284;20.890;2023-12-20T01:04:40;6.70;;;4.10;;
41141;SDS011;63666;52.284;20.890;2023-12-20T01:07:17;6.30;;;3.90;;
41141;SDS011;63666;52.284;20.890;2023-12-20T01:09:53;6.80;;;4.00;;
41141;SDS011;63666;52.284;20.890;2023-12-20T01:12:30;6.20;;;4.00;;
41141;SDS011;63666;52.284;20.890;2023-12-20T01:15:07;5.70;;;3.90;;
41141;SDS011;63666;52.284;20.890;2023-12-20T01:17:45;6.00;;;3.70;;
41141;SDS011;63666;52.284;20.890;2023-12-20T01:20:25;5.80;;;4.00;;
41141;SDS011;63666;52.284;20.890;2023-12-20T01:23:02;5.80;;;4.00;;
41141;SDS011;63666;52.284;20.890;2023-12-20T01:25:42;6.10;;;4.00;;
41141;SDS011;63666;52.284;20.890;2023-12-20T01:28:22;6.40;;;4.00;;
41141;SDS011;63666;52.284;20.890;2023-12-20T01:31:02;5.90;;;4.00;;
41141;SDS011;63666;52.284;20.890;2023-12-20T01:33:39;5.40;;;3.60;;
41141;SDS011;63666;52.284;20.890;2023-12-20T01:36:16;5.80;;;4.10;;
41141;SDS011;63666;52.284;20.890;2023-12-20T01:38:56;5.50;;;3.50;;
41141;SDS011;63666;52.284;20.890;2023-12-20T01:41:36;6.80;;;3.60;;
41141;SDS011;63666;52.284;20.890;2023-12-20T01:44:15;5.80;;;3.90;;
41141;SDS011;63666;52.284;20.890;2023-12-20T01:46:53;5.30;;;3.80;;
41141;SDS011;63666;52.284;20.890;2023-12-20T01:49:32;5.70;;;3.80;;
41141;SDS011;63666;52.284;20.890;2023-12-20T01:52:11;5.60;;;3.70;;
41141;SDS011;63666;52.284;20.890;2023-12-20T01:54:49;6.50;;;4.10;;
41141;SDS011;63666;52.284;20.890;2023-12-20T01:57:31;5.80;;;3.80;;
41141;SDS011;63666;52.284;20.890;2023-12-20T02:00:14;5.90;;;3.80;;
41141;SDS011;63666;52.284;20.890;2023-12-20T02:02:52;5.20;;;3.30;;
41141;SDS011;63666;52.284;20.890;2023-12-20T02:05:30;5.70;;;3.30;;
41141;SDS011;63666;52.284;20.890;2023-12-20T02:08:13;5.80;;;3.70;;
41141;SDS011;63666;52.284;20.890;2023-12-20T02:10:56;5.30;;;3.40;;
41141;SDS011;63666;52.284;20.890;2023-12-20T02:13:33;6.00;;;3.50;;
41141;SDS011;63666;52.284;20.890;2023-12-20T02:16:19;5.80;;;3.30;;
41141;SDS011;63666;52.284;20.890;2023-12-20T02:18:56;5.50;;;3.50;;
41141;SDS011;63666;52.284;20.890;2023-12-20T02:21:35;5.70;;;3.40;;
41141;SDS011;63666;52.284;20.890;2023-12-20T02:24:12;5.10;;;3.20;;
41141;SDS011;63666;52.284;20.890;2023-12-20T02:26:52;5.30;;;3.20;;
41141;SDS011;63666;52.284;20.890;2023-12-20T02:29:38;5.70;;;3.20;;
41141;SDS011;63666;52.284;20.890;2023-12-20T02:32:17;5.60;;;3.10;;
41141;SDS011;63666;52.284;20.890;2023-12-20T02:34:58;5.80;;;3.60;;
41141;SDS011;63666;52.284;20.890;2023-12-20T02:37:39;5.10;;;3.10;;
41141;SDS011;63666;52.284;20.890;2023-12-20T02:40:17;5.10;;;3.10;;
41141;SDS011;63666;52.284;20.890;2023-12-20T02:42:59;5.00;;;3.10;;
41141;SDS011;63666;52.284;20.890;2023-12-20T02:45:36;4.80;;;3.00;;
41141;SDS011;63666;52.284;20.890;2023-12-20T02:48:16;5.50;;;3.10;;
41141;SDS011;63666;52.284;20.890;2023-12-20T02:50:53;5.20;;;3.00;;
41141;SDS011;63666;52.284;20.890;2023-12-20T02:53:30;5.00;;;3.10;;
41141;SDS011;63666;52.284;20.890;2023-12-20T02:56:08;5.50;;;3.00;;
41141;SDS011;63666;52.284;20.890;2023-12-20T02:58:45;4.80;;;3.00;;
41141;SDS011;63666;52.284;20.890;2023-12-20T03:01:23;5.30;;;2.80;;
41141;SDS011;63666;52.284;20.890;2023-12-20T03:04:04;4.50;;;2.80;;
41141;SDS011;63666;52.284;20.890;2023-12-20T03:06:44;4.70;;;2.80;;
41141;SDS011;63666;52.284;20.890;2023-12-20T03:09:21;5.00;;;2.80;;
41141;SDS011;63666;52.284;20.890;2023-12-20T03:12:04;4.60;;;2.80;;
41141;SDS011;63666;52.284;20.890;2023-12-20T03:14:41;5.10;;;2.90;;
41141;SDS011;63666;52.284;20.890;2023-12-20T03:17:24;4.80;;;2.80;;
41141;SDS011;63666;52.284;20.890;2023-12-20T03:20:03;4.90;;;2.60;;
41141;SDS011;63666;52.284;20.890;2023-12-20T03:22:42;4.80;;;2.60;;
41141;SDS011;63666;52.284;20.890;2023-12-20T03:25:18;4.30;;;2.50;;
41141;SDS011;63666;52.284;20.890;2023-12-20T03:27:55;4.50;;;2.80;;
41141;SDS011;63666;52.284;20.890;2023-12-20T03:30:32;4.90;;;2.70;;
41141;SDS011;63666;52.284;20.890;2023-12-20T03:33:08;4.80;;;2.60;;
41141;SDS011;63666;52.284;20.890;2023-12-20T03:35:45;4.70;;;2.70;;
41141;SDS011;63666;52.284;20.890;2023-12-20T03:38:21;4.60;;;2.70;;
41141;SDS011;63666;52.284;20.890;2023-12-20T03:41:00;5.20;;;2.70;;
41141;SDS011;63666;52.284;20.890;2023-12-20T03:43:37;4.60;;;2.50;;
41141;SDS011;63666;52.284;20.890;2023-12-20T03:46:14;4.70;;;2.50;;
41141;SDS011;63666;52.284;20.890;2023-12-20T03:48:50;4.90;;;2.50;;
41141;SDS011;63666;52.284;20.890;2023-12-20T03:51:27;4.50;;;2.50;;
41141;SDS011;63666;52.284;20.890;2023-12-20T03:54:10;4.70;;;2.30;;
41141;SDS011;63666;52.284;20.890;2023-12-20T03:56:50;4.70;;;2.40;;
41141;SDS011;63666;52.284;20.890;2023-12-20T03:59:29;4.80;;;2.40;;
41141;SDS011;63666;52.284;20.890;2023-12-20T04:02:11;4.40;;;2.50;;
41141;SDS011;63666;52.284;20.890;2023-12-20T04:04:51;4.80;;;2.50;;
41141;SDS011;63666;52.284;20.890;2023-12-20T04:07:28;4.70;;;2.50;;
41141;SDS011;63666;52.284;20.890;2023-12-20T04:10:06;4.40;;;2.30;;
41141;SDS011;63666;52.284;20.890;2023-12-20T04:12:43;5.00;;;2.60;;
41141;SDS011;63666;52.284;20.890;2023-12-20T04:15:21;4.40;;;2.40;;
41141;SDS011;63666;52.284;20.890;2023-12-20T04:17:57;4.70;;;2.40;;
41141;SDS011;63666;52.284;20.890;2023-12-20T04:20:34;4.30;;;2.10;;
41141;SDS011;63666;52.284;20.890;2023-12-20T04:23:15;4.50;;;2.40;;
41141;SDS011;63666;52.284;20.890;2023-12-20T04:25:54;4.80;;;2.40;;
41141;SDS011;63666;52.284;20.890;2023-12-20T04:28:35;4.90;;;2.30;;
41141;SDS011;63666;52.284;20.890;2023-12-20T04:31:16;5.20;;;2.40;;
41141;SDS011;63666;52.284;20.890;2023-12-20T04:33:53;5.30;;;2.30;;
41141;SDS011;63666;52.284;20.890;2023-12-20T04:36:32;5.80;;;2.40;;
41141;SDS011;63666;52.284;20.890;2023-12-20T04:39:12;5.10;;;2.50;;
41141;SDS011;63666;52.284;20.890;2023-12-20T04:41:53;4.60;;;2.20;;
41141;SDS011;63666;52.284;20.890;2023-12-20T04:44:34;5.00;;;2.10;;
41141;SDS011;63666;52.284;20.890;2023-12-20T04:47:11;4.90;;;2.20;;
41141;SDS011;63666;52.284;20.890;2023-12-20T04:49:51;4.80;;;2.40;;
41141;SDS011;63666;52.284;20.890;2023-12-20T04:52:28;4.90;;;2.20;;
41141;SDS011;63666;52.284;20.890;2023-12-20T04:55:07;5.20;;;2.40;;
41141;SDS011;63666;52.284;20.890;2023-12-20T04:57:44;5.20;;;2.40;;
41141;SDS011;63666;52.284;20.890;2023-12-20T05:00:21;5.00;;;2.30;;
41141;SDS011;63666;52.284;20.890;2023-12-20T05:02:58;4.40;;;2.20;;
41141;SDS011;63666;52.284;20.890;2023-12-20T05:05:35;4.90;;;2.40;;
41141;SDS011;63666;52.284;20.890;2023-12-20T05:08:12;5.10;;;2.00;;
41141;SDS011;63666;52.284;20.890;2023-12-20T05:10:49;4.90;;;2.10;;
41141;SDS011;63666;52.284;20.890;2023-12-20T05:13:27;4.20;;;2.10;;
41141;SDS011;63666;52.284;20.890;2023-12-20T05:16:17;5.10;;;2.20;;
41141;SDS011;63666;52.284;20.890;2023-12-20T05:18:54;5.30;;;2.10;;
41141;SDS011;63666;52.284;20.890;2023-12-20T05:21:33;3.80;;;1.90;;
41141;SDS011;63666;52.284;20.890;2023-12-20T05:24:15;5.80;;;2.40;;
41141;SDS011;63666;52.284;20.890;2023-12-20T05:26:52;4.40;;;2.00;;
41141;SDS011;63666;52.284;20.890;2023-12-20T05:29:33;4.90;;;1.90;;
41141;SDS011;63666;52.284;20.890;2023-12-20T05:32:11;4.30;;;2.10;;
41141;SDS011;63666;52.284;20.890;2023-12-20T05:34:48;4.30;;;1.80;;
41141;SDS011;63666;52.284;20.890;2023-12-20T05:37:25;3.70;;;1.70;;
41141;SDS011;63666;52.284;20.890;2023-12-20T05:40:08;3.90;;;1.80;;
41141;SDS011;63666;52.284;20.890;2023-12-20T05:42:45;3.80;;;1.90;;
41141;SDS011;63666;52.284;20.890;2023-12-20T05:45:23;5.00;;;1.90;;
41141;SDS011;63666;52.284;20.890;2023-12-20T05:48:06;4.50;;;1.80;;
41141;SDS011;63666;52.284;20.890;2023-12-20T05:50:43;4.40;;;1.80;;
41141;SDS011;63666;52.284;20.890;2023-12-20T05:53:19;4.40;;;2.00;;
41141;SDS011;63666;52.284;20.890;2023-12-20T05:55:56;3.90;;;1.90;;
41141;SDS011;63666;52.284;20.890;2023-12-20T05:58:35;4.20;;;1.90;;
41141;SDS011;63666;52.284;20.890;2023-12-20T06:01:13;3.90;;;1.90;;
41141;SDS011;63666;52.284;20.890;2023-12-20T06:03:55;3.70;;;1.90;;
41141;SDS011;63666;52.284;20.890;2023-12-20T06:06:34;4.40;;;2.00;;
41141;SDS011;63666;52.284;20.890;2023-12-20T06:09:13;4.00;;;1.90;;
41141;SDS011;63666;52.284;20.890;2023-12-20T06:11:49;3.70;;;1.70;;
41141;SDS011;63666;52.284;20.890;2023-12-20T06:14:26;4.50;;;1.80;;
41141;SDS011;63666;52.284;20.890;2023-12-20T06:17:04;4.20;;;1.70;;
41141;SDS011;63666;52.284;20.890;2023-12-20T06:19:44;3.70;;;1.80;;
41141;SDS011;63666;52.284;20.890;2023-12-20T06:22:22;3.50;;;1.80;;
41141;SDS011;63666;52.284;20.890;2023-12-20T06:25:00;3.60;;;1.70;;
41141;SDS011;63666;52.284;20.890;2023-12-20T06:27:39;3.80;;;1.60;;
41141;SDS011;63666;52.284;20.890;2023-12-20T06:30:16;3.80;;;1.70;;
41141;SDS011;63666;52.284;20.890;2023-12-20T06:32:53;3.60;;;1.70;;
41141;SDS011;63666;52.284;20.890;2023-12-20T06:35:32;3.70;;;1.70;;
41141;SDS011;63666;52.284;20.890;2023-12-20T06:38:10;4.60;;;1.80;;
41141;SDS011;63666;52.284;20.890;2023-12-20T06:40:47;4.00;;;1.80;;
41141;SDS011;63666;52.284;20.890;2023-12-20T06:43:27;4.00;;;1.70;;
41141;SDS011;63666;52.284;20.890;2023-12-20T06:46:24;3.80;;;1.70;;
41141;SDS011;63666;52.284;20.890;2023-12-20T06:49:07;4.20;;;1.90;;
41141;SDS011;63666;52.284;20.890;2023-12-20T06:51:44;3.40;;;1.70;;
41141;SDS011;63666;52.284;20.890;2023-12-20T06:54:20;3.70;;;1.70;;
41141;SDS011;63666;52.284;20.890;2023-12-20T06:56:58;3.50;;;1.70;;
41141;SDS011;63666;52.284;20.890;2023-12-20T06:59:40;3.60;;;1.50;;
41141;SDS011;63666;52.284;20.890;2023-12-20T07:02:17;4.10;;;1.80;;
41141;SDS011;63666;52.284;20.890;2023-12-20T07:04:59;3.20;;;1.50;;
41141;SDS011;63666;52.284;20.890;2023-12-20T07:07:38;3.60;;;1.80;;
41141;SDS011;63666;52.284;20.890;2023-12-20T07:10:17;3.70;;;1.60;;
41141;SDS011;63666;52.284;20.890;2023-12-20T07:12:56;3.30;;;1.50;;
41141;SDS011;63666;52.284;20.890;2023-12-20T07:15:34;4.00;;;1.60;;
41141;SDS011;63666;52.284;20.890;2023-12-20T07:18:12;3.80;;;1.50;;
41141;SDS011;63666;52.284;20.890;2023-12-20T07:20:48;3.30;;;1.40;;
41141;SDS011;63666;52.284;20.890;2023-12-20T07:23:25;3.70;;;1.50;;
41141;SDS011;63666;52.284;20.890;2023-12-20T07:26:01;3.40;;;1.60;;
41141;SDS011;63666;52.284;20.890;2023-12-20T07:28:43;3.30;;;1.70;;
41141;SDS011;63666;52.284;20.890;2023-12-20T07:31:21;3.30;;;1.40;;
41141;SDS011;63666;52.284;20.890;2023-12-20T07:34:00;3.30;;;1.40;;
41141;SDS011;63666;52.284;20.890;2023-12-20T07:36:40;3.80;;;1.90;;
41141;SDS011;63666;52.284;20.890;2023-12-20T07:39:18;3.50;;;1.60;;
41141;SDS011;63666;52.284;20.890;2023-12-20T07:41:58;3.60;;;1.50;;
41141;SDS011;63666;52.284;20.890;2023-12-20T07:44:36;3.00;;;1.40;;
41141;SDS011;63666;52.284;20.890;2023-12-20T07:47:17;3.40;;;1.60;;
41141;SDS011;63666;52.284;20.890;2023-12-20T07:49:55;3.70;;;1.60;;
41141;SDS011;63666;52.284;20.890;2023-12-20T07:52:33;3.50;;;1.80;;
41141;SDS011;63666;52.284;20.890;2023-12-20T07:55:13;4.00;;;1.60;;
41141;SDS011;63666;52.284;20.890;2023-12-20T07:57:53;3.30;;;1.50;;
41141;SDS011;63666;52.284;20.890;2023-12-20T08:00:29;4.40;;;1.70;;
41141;SDS011;63666;52.284;20.890;2023-12-20T08:03:11;3.70;;;1.70;;
41141;SDS011;63666;52.284;20.890;2023-12-20T08:05:48;4.00;;;1.90;;
41141;SDS011;63666;52.284;20.890;2023-12-20T08:08:26;4.10;;;1.60;;
41141;SDS011;63666;52.284;20.890;2023-12-20T08:11:05;3.30;;;1.50;;
41141;SDS011;63666;52.284;20.890;2023-12-20T08:13:42;4.80;;;1.70;;
41141;SDS011;63666;52.284;20.890;2023-12-20T08:16:21;3.90;;;1.70;;
41141;SDS011;63666;52.284;20.890;2023-12-20T08:18:57;4.20;;;1.80;;
41141;SDS011;63666;52.284;20.890;2023-12-20T08:21:36;6.20;;;2.00;;
41141;SDS011;63666;52.284;20.890;2023-12-20T08:24:12;5.20;;;2.20;;
41141;SDS011;63666;52.284;20.890;2023-12-20T08:26:50;6.70;;;2.20;;
41141;SDS011;63666;52.284;20.890;2023-12-20T08:29:28;4.90;;;2.10;;
41141;SDS011;63666;52.284;20.890;2023-12-20T08:32:08;6.10;;;2.10;;
41141;SDS011;63666;52.284;20.890;2023-12-20T08:34:48;6.00;;;2.00;;
41141;SDS011;63666;52.284;20.890;2023-12-20T08:37:25;5.80;;;2.20;;
41141;SDS011;63666;52.284;20.890;2023-12-20T08:40:05;5.40;;;2.20;;
41141;SDS011;63666;52.284;20.890;2023-12-20T08:42:44;4.30;;;1.90;;
41141;SDS011;63666;52.284;20.890;2023-12-20T08:45:21;4.90;;;2.00;;
41141;SDS011;63666;52.284;20.890;2023-12-20T08:47:58;5.80;;;1.80;;
41141;SDS011;63666;52.284;20.890;2023-12-20T08:50:41;6.00;;;1.90;;
41141;SDS011;63666;52.284;20.890;2023-12-20T08:53:23;5.60;;;2.20;;
41141;SDS011;63666;52.284;20.890;2023-12-20T08:56:01;4.80;;;1.90;;
41141;SDS011;63666;52.284;20.890;2023-12-20T08:58:40;4.90;;;2.20;;
41141;SDS011;63666;52.284;20.890;2023-12-20T09:01:20;5.90;;;2.20;;
41141;SDS011;63666;52.284;20.890;2023-12-20T09:04:00;4.90;;;2.00;;
41141;SDS011;63666;52.284;20.890;2023-12-20T09:06:37;5.90;;;2.50;;
41141;SDS011;63666;52.284;20.890;2023-12-20T09:09:14;4.60;;;2.00;;
41141;SDS011;63666;52.284;20.890;2023-12-20T09:11:57;5.10;;;1.90;;
41141;SDS011;63666;52.284;20.890;2023-12-20T09:14:35;6.00;;;2.10;;
41141;SDS011;63666;52.284;20.890;2023-12-20T09:17:13;5.10;;;2.00;;
41141;SDS011;63666;52.284;20.890;2023-12-20T09:19:51;7.90;;;2.00;;
41141;SDS011;63666;52.284;20.890;2023-12-20T09:22:34;5.50;;;2.00;;
41141;SDS011;63666;52.284;20.890;2023-12-20T09:25:16;6.20;;;1.90;;
41141;SDS011;63666;52.284;20.890;2023-12-20T09:27:55;5.70;;;2.00;;
41141;SDS011;63666;52.284;20.890;2023-12-20T09:30:40;6.30;;;1.80;;
41141;SDS011;63666;52.284;20.890;2023-12-20T09:33:28;6.30;;;2.00;;
41141;SDS011;63666;52.284;20.890;2023-12-20T09:36:13;5.40;;;1.80;;
41141;SDS011;63666;52.284;20.890;2023-12-20T09:38:57;4.60;;;1.90;;
41141;SDS011;63666;52.284;20.890;2023-12-20T09:42:43;4.40;;;2.00;;
41141;SDS011;63666;52.284;20.890;2023-12-20T09:45:37;5.90;;;1.90;;
41141;SDS011;63666;52.284;20.890;2023-12-20T09:48:41;4.90;;;1.80;;
41141;SDS011;63666;52.284;20.890;2023-12-20T09:51:33;4.90;;;2.00;;
41141;SDS011;63666;52.284;20.890;2023-12-20T09:54:19;4.80;;;1.90;;
41141;SDS011;63666;52.284;20.890;2023-12-20T09:57:02;5.00;;;1.90;;
41141;SDS011;63666;52.284;20.890;2023-12-20T09:59:43;4.90;;;1.90;;
41141;SDS011;63666;52.284;20.890;2023-12-20T10:02:28;4.20;;;1.80;;
41141;SDS011;63666;52.284;20.890;2023-12-20T10:05:18;4.90;;;1.90;;
41141;SDS011;63666;52.284;20.890;2023-12-20T10:08:09;4.60;;;1.70;;
41141;SDS011;63666;52.284;20.890;2023-12-20T10:10:48;4.40;;;1.80;;
41141;SDS011;63666;52.284;20.890;2023-12-20T10:13:32;3.40;;;1.60;;
41141;SDS011;63666;52.284;20.890;2023-12-20T10:16:12;4.30;;;1.70;;
41141;SDS011;63666;52.284;20.890;2023-12-20T10:19:34;3.50;;;1.40;;
41141;SDS011;63666;52.284;20.890;2023-12-20T10:22:31;4.50;;;1.80;;
41141;SDS011;63666;52.284;20.890;2023-12-20T10:25:14;4.50;;;1.80;;
41141;SDS011;63666;52.284;20.890;2023-12-20T10:28:16;4.60;;;1.60;;
41141;SDS011;63666;52.284;20.890;2023-12-20T10:30:55;4.60;;;1.70;;
41141;SDS011;63666;52.284;20.890;2023-12-20T10:33:31;4.00;;;1.70;;
41141;SDS011;63666;52.284;20.890;2023-12-20T10:36:23;4.00;;;1.80;;
41141;SDS011;63666;52.284;20.890;2023-12-20T10:39:12;4.10;;;1.70;;
41141;SDS011;63666;52.284;20.890;2023-12-20T10:41:53;4.10;;;1.70;;
41141;SDS011;63666;52.284;20.890;2023-12-20T10:44:39;4.00;;;1.70;;
41141;SDS011;63666;52.284;20.890;2023-12-20T10:47:40;4.30;;;1.60;;
41141;SDS011;63666;52.284;20.890;2023-12-20T10:50:30;4.00;;;1.60;;
41141;SDS011;63666;52.284;20.890;2023-12-20T10:53:07;4.50;;;1.60;;
41141;SDS011;63666;52.284;20.890;2023-12-20T10:55:46;4.40;;;1.70;;
41141;SDS011;63666;52.284;20.890;2023-12-20T10:58:23;3.80;;;1.60;;
41141;SDS011;63666;52.284;20.890;2023-12-20T11:01:06;5.00;;;1.80;;
41141;SDS011;63666;52.284;20.890;2023-12-20T11:03:54;3.90;;;1.70;;
41141;SDS011;63666;52.284;20.890;2023-12-20T11:06:40;3.80;;;1.50;;
41141;SDS011;63666;52.284;20.890;2023-12-20T11:09:38;4.30;;;1.50;;
41141;SDS011;63666;52.284;20.890;2023-12-20T11:12:39;3.50;;;1.50;;
41141;SDS011;63666;52.284;20.890;2023-12-20T11:15:38;4.60;;;1.80;;
41141;SDS011;63666;52.284;20.890;2023-12-20T11:20:05;4.40;;;1.70;;
41141;SDS011;63666;52.284;20.890;2023-12-20T11:22:59;3.50;;;1.50;;
41141;SDS011;63666;52.284;20.890;2023-12-20T11:25:51;4.00;;;1.70;;
41141;SDS011;63666;52.284;20.890;2023-12-20T11:28:42;3.80;;;1.50;;
41141;SDS011;63666;52.284;20.890;2023-12-20T11:31:22;3.60;;;1.60;;
41141;SDS011;63666;52.284;20.890;2023-12-20T11:34:14;3.90;;;1.50;;
41141;SDS011;63666;52.284;20.890;2023-12-20T11:37:05;3.80;;;1.70;;
41141;SDS011;63666;52.284;20.890;2023-12-20T11:39:46;3.80;;;1.60;;
41141;SDS011;63666;52.284;20.890;2023-12-20T11:42:41;3.70;;;1.50;;
41141;SDS011;63666;52.284;20.890;2023-12-20T11:45:34;3.40;;;1.50;;
41141;SDS011;63666;52.284;20.890;2023-12-20T11:48:17;3.70;;;1.50;;
41141;SDS011;63666;52.284;20.890;2023-12-20T11:51:11;3.90;;;1.60;;
41141;SDS011;63666;52.284;20.890;2023-12-20T11:54:17;3.40;;;1.60;;
41141;SDS011;63666;52.284;20.890;2023-12-20T11:57:05;3.60;;;1.60;;
41141;SDS011;63666;52.284;20.890;2023-12-20T11:59:52;3.60;;;1.40;;
41141;SDS011;63666;52.284;20.890;2023-12-20T12:02:37;4.10;;;1.60;;
41141;SDS011;63666;52.284;20.890;2023-12-20T12:05:25;4.10;;;1.60;;
41141;SDS011;63666;52.284;20.890;2023-12-20T12:08:31;3.60;;;1.60;;
41141;SDS011;63666;52.284;20.890;2023-12-20T12:11:19;4.30;;;1.50;;
41141;SDS011;63666;52.284;20.890;2023-12-20T12:14:00;4.10;;;1.60;;
41141;SDS011;63666;52.284;20.890;2023-12-20T12:16:45;3.20;;;1.50;;
41141;SDS011;63666;52.284;20.890;2023-12-20T12:19:35;4.40;;;1.60;;
41141;SDS011;63666;52.284;20.890;2023-12-20T12:22:16;3.50;;;1.60;;
41141;SDS011;63666;52.284;20.890;2023-12-20T12:27:57;3.30;;;1.40;;
41141;SDS011;63666;52.284;20.890;2023-12-20T12:30:37;3.80;;;1.50;;
41141;SDS011;63666;52.284;20.890;2023-12-20T12:33:27;3.10;;;1.40;;
41141;SDS011;63666;52.284;20.890;2023-12-20T12:36:09;3.30;;;1.40;;
41141;SDS011;63666;52.284;20.890;2023-12-20T12:38:57;4.50;;;1.60;;
41141;SDS011;63666;52.284;20.890;2023-12-20T12:41:39;3.70;;;1.50;;
41141;SDS011;63666;52.284;20.890;2023-12-20T12:44:27;4.10;;;1.50;;
41141;SDS011;63666;52.284;20.890;2023-12-20T12:47:14;3.10;;;1.40;;
41141;SDS011;63666;52.284;20.890;2023-12-20T12:49:57;2.90;;;1.20;;
41141;SDS011;63666;52.284;20.890;2023-12-20T12:52:39;3.20;;;1.50;;
41141;SDS011;63666;52.284;20.890;2023-12-20T12:55:23;3.80;;;1.60;;
41141;SDS011;63666;52.284;20.890;2023-12-20T12:58:15;3.50;;;1.50;;
41141;SDS011;63666;52.284;20.890;2023-12-20T13:01:03;3.80;;;1.70;;
41141;SDS011;63666;52.284;20.890;2023-12-20T13:03:48;3.80;;;1.70;;
41141;SDS011;63666;52.284;20.890;2023-12-20T13:06:29;3.90;;;1.70;;
41141;SDS011;63666;52.284;20.890;2023-12-20T13:09:16;4.30;;;1.60;;
41141;SDS011;63666;52.284;20.890;2023-12-20T13:12:00;3.50;;;1.60;;
41141;SDS011;63666;52.284;20.890;2023-12-20T13:14:39;4.20;;;1.70;;
41141;SDS011;63666;52.284;20.890;2023-12-20T13:17:21;4.10;;;1.80;;
41141;SDS011;63666;52.284;20.890;2023-12-20T13:20:13;4.00;;;1.80;;
41141;SDS011;63666;52.284;20.890;2023-12-20T13:22:57;3.30;;;1.60;;
41141;SDS011;63666;52.284;20.890;2023-12-20T13:25:44;3.60;;;1.60;;
41141;SDS011;63666;52.284;20.890;2023-12-20T13:28:31;3.80;;;1.70;;
41141;SDS011;63666;52.284;20.890;2023-12-20T13:31:24;3.70;;;1.70;;
41141;SDS011;63666;52.284;20.890;2023-12-20T13:34:13;3.90;;;1.70;;
41141;SDS011;63666;52.284;20.890;2023-12-20T13:37:06;3.70;;;1.80;;
41141;SDS011;63666;52.284;20.890;2023-12-20T13:39:56;3.60;;;1.60;;
41141;SDS011;63666;52.284;20.890;2023-12-20T13:42:43;3.60;;;1.50;;
41141;SDS011;63666;52.284;20.890;2023-12-20T13:45:28;3.80;;;1.70;;
41141;SDS011;63666;52.284;20.890;2023-12-20T13:48:10;3.30;;;1.60;;
41141;SDS011;63666;52.284;20.890;2023-12-20T13:50:51;4.00;;;1.70;;
41141;SDS011;63666;52.284;20.890;2023-12-20T13:53:31;3.90;;;1.80;;
41141;SDS011;63666;52.284;20.890;2023-12-20T13:56:09;3.60;;;1.60;;
41141;SDS011;63666;52.284;20.890;2023-12-20T13:58:46;4.20;;;1.90;;
41141;SDS011;63666;52.284;20.890;2023-12-20T14:01:28;5.00;;;1.90;;
41141;SDS011;63666;52.284;20.890;2023-12-20T14:04:09;3.70;;;1.70;;
41141;SDS011;63666;52.284;20.890;2023-12-20T14:07:11;3.80;;;1.90;;
41141;SDS011;63666;52.284;20.890;2023-12-20T14:09:55;4.10;;;2.00;;
41141;SDS011;63666;52.284;20.890;2023-12-20T14:12:42;4.60;;;1.90;;
41141;SDS011;63666;52.284;20.890;2023-12-20T14:15:22;3.70;;;1.80;;
41141;SDS011;63666;52.284;20.890;2023-12-20T14:18:14;4.00;;;1.90;;
41141;SDS011;63666;52.284;20.890;2023-12-20T14:21:13;4.50;;;1.80;;
41141;SDS011;63666;52.284;20.890;2023-12-20T14:24:00;4.60;;;1.80;;
41141;SDS011;63666;52.284;20.890;2023-12-20T14:26:38;5.60;;;2.10;;
41141;SDS011;63666;52.284;20.890;2023-12-20T14:29:18;3.90;;;1.60;;
41141;SDS011;63666;52.284;20.890;2023-12-20T14:31:58;3.60;;;1.90;;
41141;SDS011;63666;52.284;20.890;2023-12-20T14:34:44;3.80;;;1.80;;
41141;SDS011;63666;52.284;20.890;2023-12-20T14:37:27;4.00;;;2.10;;
41141;SDS011;63666;52.284;20.890;2023-12-20T14:40:15;4.00;;;2.00;;
41141;SDS011;63666;52.284;20.890;2023-12-20T14:42:58;4.60;;;2.00;;
41141;SDS011;63666;52.284;20.890;2023-12-20T14:45:45;3.80;;;1.80;;
41141;SDS011;63666;52.284;20.890;2023-12-20T14:48:23;5.00;;;2.00;;
41141;SDS011;63666;52.284;20.890;2023-12-20T14:51:03;4.20;;;2.00;;
41141;SDS011;63666;52.284;20.890;2023-12-20T14:53:39;4.00;;;1.90;;
41141;SDS011;63666;52.284;20.890;2023-12-20T14:56:15;4.60;;;1.90;;
41141;SDS011;63666;52.284;20.890;2023-12-20T14:59:00;3.50;;;1.60;;
41141;SDS011;63666;52.284;20.890;2023-12-20T15:01:48;4.80;;;1.80;;
41141;SDS011;63666;52.284;20.890;2023-12-20T15:04:49;4.10;;;1.80;;
41141;SDS011;63666;52.284;20.890;2023-12-20T15:12:31;3.70;;;1.80;;
41141;SDS011;63666;52.284;20.890;2023-12-20T15:15:20;4.10;;;1.80;;
41141;SDS011;63666;52.284;20.890;2023-12-20T15:18:03;4.40;;;1.80;;
41141;SDS011;63666;52.284;20.890;2023-12-20T15:20:48;4.20;;;1.80;;
41141;SDS011;63666;52.284;20.890;2023-12-20T15:23:33;4.20;;;1.90;;
41141;SDS011;63666;52.284;20.890;2023-12-20T15:26:15;4.40;;;1.80;;
41141;SDS011;63666;52.284;20.890;2023-12-20T15:28:58;4.10;;;1.80;;
41141;SDS011;63666;52.284;20.890;2023-12-20T15:34:29;4.00;;;1.90;;
41141;SDS011;63666;52.284;20.890;2023-12-20T15:37:11;4.40;;;1.60;;
41141;SDS011;63666;52.284;20.890;2023-12-20T15:39:54;3.80;;;1.60;;
41141;SDS011;63666;52.284;20.890;2023-12-20T15:42:32;4.00;;;1.80;;
41141;SDS011;63666;52.284;20.890;2023-12-20T15:45:21;4.30;;;1.90;;
41141;SDS011;63666;52.284;20.890;2023-12-20T15:48:08;4.50;;;1.90;;
41141;SDS011;63666;52.284;20.890;2023-12-20T15:50:52;3.80;;;1.90;;
41141;SDS011;63666;52.284;20.890;2023-12-20T15:53:37;4.30;;;1.90;;
41141;SDS011;63666;52.284;20.890;2023-12-20T15:56:19;3.60;;;1.60;;
41141;SDS011;63666;52.284;20.890;2023-12-20T15:59:04;4.50;;;1.90;;
41141;SDS011;63666;52.284;20.890;2023-12-20T16:01:47;3.70;;;1.60;;
41141;SDS011;63666;52.284;20.890;2023-12-20T16:04:33;4.40;;;1.80;;
41141;SDS011;63666;52.284;20.890;2023-12-20T16:07:24;4.40;;;1.80;;
41141;SDS011;63666;52.284;20.890;2023-12-20T16:10:12;4.30;;;1.70;;
41141;SDS011;63666;52.284;20.890;2023-12-20T16:12:58;4.00;;;1.90;;